createdAt,value
2023-04-21T00:01:23.165Z,23.97
2023-04-21T00:03:50.768Z,23.05
2023-04-21T00:06:23.492Z,24.33
2023-04-21T00:08:50.703Z,25.00
2023-04-21T00:11:17.805Z,24.30
2023-04-21T00:13:44.533Z,25.60
2023-04-21T00:16:11.094Z,24.77
2023-04-21T00:18:37.685Z,25.80
2023-04-21T00:21:04.414Z,24.97
2023-04-21T00:23:30.903Z,26.60
2023-04-21T00:25:57.403Z,26.03
2023-04-21T00:28:24.103Z,25.73
2023-04-21T00:30:50.580Z,26.43
2023-04-21T00:33:17.012Z,25.80
2023-04-21T00:35:43.464Z,26.23
2023-04-21T00:38:09.902Z,26.70
2023-04-21T00:40:36.438Z,27.07
2023-04-21T00:43:06.512Z,25.87
2023-04-21T00:45:33.294Z,27.00
2023-04-21T00:47:59.802Z,27.47
2023-04-21T00:50:27.937Z,27.37
2023-04-21T00:52:56.113Z,27.90
2023-04-21T00:55:22.800Z,28.93
2023-04-21T00:57:52.094Z,28.53
2023-04-21T01:00:19.045Z,29.20
2023-04-21T01:02:45.896Z,30.33
2023-04-21T01:05:12.761Z,29.00
2023-04-21T01:07:39.444Z,29.90
2023-04-21T01:10:06.590Z,28.85
2023-04-21T01:12:33.007Z,29.47
2023-04-21T01:14:59.527Z,29.38
2023-04-21T01:17:26.947Z,29.23
2023-04-21T01:19:58.236Z,30.37
2023-04-21T01:22:24.754Z,28.30
2023-04-21T01:24:51.793Z,29.57
2023-04-21T01:27:20.205Z,29.27
2023-04-21T01:29:49.183Z,28.50
2023-04-21T01:32:20.253Z,28.83
2023-04-21T01:34:48.125Z,28.03
2023-04-21T01:37:18.688Z,28.70
2023-04-21T01:39:48.178Z,27.63
2023-04-21T01:42:14.665Z,28.43
2023-04-21T01:44:41.196Z,29.17
2023-04-21T01:47:08.915Z,28.60
2023-04-21T01:49:35.429Z,29.27
2023-04-21T01:52:01.854Z,28.93
2023-04-21T01:54:28.417Z,28.53
2023-04-21T01:56:54.990Z,28.03
2023-04-21T01:59:21.836Z,28.80
2023-04-21T02:01:48.520Z,27.60
2023-04-21T02:04:15.238Z,27.23
2023-04-21T02:06:41.863Z,27.73
2023-04-21T02:09:08.441Z,27.37
2023-04-21T02:11:34.968Z,27.10
2023-04-21T02:14:01.610Z,27.27
2023-04-21T02:16:28.216Z,27.53
2023-04-21T02:19:03.296Z,26.93
2023-04-21T02:21:29.908Z,28.37
2023-04-21T02:23:56.468Z,27.70
2023-04-21T02:26:23.654Z,28.00
2023-04-21T02:28:51.161Z,28.53
2023-04-21T02:31:18.732Z,27.97
2023-04-21T02:33:46.097Z,29.57
2023-04-21T02:36:12.895Z,29.80
2023-04-21T02:38:39.359Z,29.23
2023-04-21T02:41:05.818Z,29.43
2023-04-21T02:43:32.335Z,29.33
2023-04-21T02:45:58.816Z,30.03
2023-04-21T02:48:25.408Z,29.07
2023-04-21T02:50:53.375Z,30.17
2023-04-21T02:53:20.638Z,30.03
2023-04-21T02:55:47.236Z,30.17
2023-04-21T02:58:14.428Z,29.63
2023-04-21T03:00:41.219Z,30.33
2023-04-21T03:03:08.003Z,31.07
2023-04-21T03:05:34.674Z,30.17
2023-04-21T03:08:01.171Z,30.13
2023-04-21T03:10:27.660Z,30.23
2023-04-21T03:12:54.181Z,29.33
2023-04-21T03:15:20.992Z,29.40
2023-04-21T03:17:47.502Z,29.60
2023-04-21T03:20:14.016Z,30.10
2023-04-21T03:22:40.514Z,30.00
2023-04-21T03:25:07.785Z,28.90
2023-04-21T03:27:35.139Z,29.97
2023-04-21T03:30:01.697Z,27.50
2023-04-21T03:32:28.518Z,29.47
2023-04-21T03:34:55.027Z,29.17
2023-04-21T03:37:21.456Z,29.27
2023-04-21T03:39:47.942Z,29.00
2023-04-21T03:42:14.467Z,29.07
2023-04-21T03:44:40.917Z,28.57
2023-04-21T03:47:07.346Z,28.00
2023-04-21T03:49:34.886Z,29.63
2023-04-21T03:52:01.463Z,29.60
2023-04-21T03:54:28.022Z,28.90
2023-04-21T03:56:54.594Z,28.33
2023-04-21T03:59:21.440Z,30.03
2023-04-21T04:01:48.119Z,29.17
2023-04-21T04:04:14.879Z,27.70
2023-04-21T04:06:41.790Z,30.67
2023-04-21T04:09:09.187Z,29.77
2023-04-21T04:11:35.992Z,30.17
2023-04-21T04:14:02.528Z,29.27
2023-04-21T04:16:29.359Z,29.53
2023-04-21T04:18:56.480Z,28.37
2023-04-21T04:21:22.957Z,28.87
2023-04-21T04:23:51.784Z,29.07
2023-04-21T04:26:19.065Z,28.97
2023-04-21T04:28:46.150Z,27.93
2023-04-21T04:31:13.796Z,28.80
2023-04-21T04:33:44.125Z,26.17
2023-04-21T04:36:12.038Z,28.47
2023-04-21T04:38:38.727Z,26.60
2023-04-21T04:41:06.289Z,28.30
2023-04-21T04:43:41.844Z,28.63
2023-04-21T04:46:09.483Z,27.67
2023-04-21T04:48:35.989Z,27.53
2023-04-21T04:51:02.471Z,28.57
2023-04-21T04:53:29.493Z,29.57
2023-04-21T04:55:57.586Z,26.80
2023-04-21T04:58:24.447Z,26.57
2023-04-21T05:00:51.284Z,25.47
2023-04-21T05:03:17.962Z,25.50
2023-04-21T05:05:46.098Z,25.87
2023-04-21T05:08:12.621Z,25.87
2023-04-21T05:10:39.146Z,25.77
2023-04-21T05:13:05.672Z,25.23
2023-04-21T05:15:32.165Z,25.80
2023-04-21T05:17:58.661Z,24.37
2023-04-21T05:20:25.344Z,24.73
2023-04-21T05:22:51.809Z,24.77
2023-04-21T05:25:18.277Z,23.87
2023-04-21T05:27:44.812Z,25.17
2023-04-21T05:30:11.587Z,25.33
2023-04-21T05:32:38.317Z,24.60
2023-04-21T05:35:05.108Z,24.10
2023-04-21T05:37:31.696Z,23.73
2023-04-21T05:39:58.290Z,23.27
2023-04-21T05:42:24.728Z,23.40
2023-04-21T05:44:51.214Z,21.75
2023-04-21T05:47:17.698Z,20.85
2023-04-21T05:49:50.074Z,20.42
2023-04-21T05:52:17.744Z,19.90
2023-04-21T05:54:44.241Z,18.48
2023-04-21T05:57:10.837Z,17.55
2023-04-21T05:59:37.327Z,18.35
2023-04-21T06:02:04.285Z,17.98
2023-04-21T06:04:31.164Z,17.73
2023-04-21T06:06:57.795Z,16.23
2023-04-21T06:09:24.256Z,15.93
2023-04-21T06:11:50.798Z,16.73
2023-04-21T06:14:17.531Z,15.50
2023-04-21T06:16:44.261Z,15.63
2023-04-21T06:19:11.234Z,14.77
2023-04-21T06:21:37.707Z,14.95
2023-04-21T06:24:04.432Z,15.30
2023-04-21T06:26:30.910Z,14.70
2023-04-21T06:28:57.316Z,15.40
2023-04-21T06:31:23.823Z,13.73
2023-04-21T06:33:50.287Z,14.27
2023-04-21T06:36:18.094Z,14.13
2023-04-21T06:38:44.774Z,13.70
2023-04-21T06:41:11.254Z,14.48
2023-04-21T06:43:37.844Z,12.90
2023-04-21T06:46:04.372Z,12.45
2023-04-21T06:48:31.119Z,12.05
2023-04-21T06:50:57.612Z,13.45
2023-04-21T06:53:24.348Z,13.13
2023-04-21T06:55:53.595Z,13.10
2023-04-21T06:58:21.491Z,13.63
2023-04-21T07:00:48.195Z,12.95
2023-04-21T07:03:14.889Z,13.05
2023-04-21T07:05:41.379Z,11.88
2023-04-21T07:08:07.853Z,12.07
2023-04-21T07:10:34.299Z,12.98
2023-04-21T07:13:00.818Z,12.27
2023-04-21T07:15:27.268Z,11.80
2023-04-21T07:17:53.815Z,12.75
2023-04-21T07:20:20.482Z,11.55
2023-04-21T07:22:46.934Z,12.10
2023-04-21T07:25:13.437Z,11.40
2023-04-21T07:27:40.218Z,11.50
2023-04-21T07:30:07.698Z,11.93
2023-04-21T07:32:35.133Z,12.18
2023-04-21T07:35:02.693Z,10.90
2023-04-21T07:37:29.423Z,13.30
2023-04-21T07:39:55.901Z,13.77
2023-04-21T07:42:22.593Z,11.68
2023-04-21T07:44:49.183Z,11.13
2023-04-21T07:47:15.691Z,11.80
2023-04-21T07:49:42.168Z,11.02
2023-04-21T07:52:08.879Z,11.60
2023-04-21T07:54:35.623Z,11.02
2023-04-21T07:57:02.633Z,10.98
2023-04-21T07:59:29.348Z,10.82
2023-04-21T08:01:56.473Z,10.48
2023-04-21T08:04:23.385Z,9.93
2023-04-21T08:06:50.348Z,10.65
2023-04-21T08:09:17.217Z,11.18
2023-04-21T08:11:43.874Z,8.90
2023-04-21T08:14:11.894Z,10.82
2023-04-21T08:16:40.349Z,10.20
2023-04-21T08:19:08.182Z,10.45
2023-04-21T08:21:35.606Z,10.07
2023-04-21T08:24:02.632Z,9.50
2023-04-21T08:26:30.260Z,9.85
2023-04-21T08:28:57.321Z,9.90
2023-04-21T08:31:23.943Z,10.10
2023-04-21T08:34:00.287Z,8.70
2023-04-21T08:36:29.983Z,9.73
2023-04-21T08:38:57.463Z,8.45
2023-04-21T08:41:24.806Z,8.60
2023-04-21T08:43:51.447Z,8.15
2023-04-21T08:46:19.693Z,8.48
2023-04-21T08:48:47.138Z,8.40
2023-04-21T08:51:20.965Z,8.65
2023-04-21T08:53:47.417Z,8.73
2023-04-21T08:56:13.877Z,8.27
2023-04-21T08:58:41.538Z,9.05
2023-04-21T09:01:08.101Z,8.32
2023-04-21T09:03:34.841Z,9.13
2023-04-21T09:06:06.829Z,9.77
2023-04-21T09:08:38.004Z,9.95
2023-04-21T09:11:04.689Z,10.18
2023-04-21T09:13:37.991Z,10.40
2023-04-21T09:16:15.256Z,9.60
2023-04-21T09:18:44.183Z,9.98
2023-04-21T09:21:16.214Z,10.20
2023-04-21T09:23:50.856Z,10.00
2023-04-21T09:26:19.330Z,9.70
2023-04-21T09:28:47.554Z,9.13
2023-04-21T09:31:16.949Z,10.02
2023-04-21T09:33:59.281Z,9.75
2023-04-21T09:36:29.703Z,9.57
2023-04-21T09:39:20.658Z,9.63
2023-04-21T09:41:44.860Z,7.28
2023-04-21T09:44:11.456Z,7.30
2023-04-21T09:46:43.621Z,7.85
2023-04-21T09:49:13.805Z,7.53
2023-04-21T09:52:05.872Z,8.10
2023-04-21T09:54:34.555Z,7.35
2023-04-21T09:57:03.919Z,7.80
2023-04-21T09:59:37.007Z,8.23
2023-04-21T10:02:08.158Z,8.48
2023-04-21T10:04:37.237Z,8.95
2023-04-21T10:07:04.559Z,8.55
2023-04-21T10:09:41.569Z,8.88
2023-04-21T10:12:09.987Z,9.00
2023-04-21T10:14:36.929Z,8.90
2023-04-21T10:17:08.555Z,8.27
2023-04-21T10:19:40.615Z,9.43
2023-04-21T10:22:10.843Z,7.82
2023-04-21T10:24:39.655Z,6.82
2023-04-21T10:27:09.341Z,7.97
2023-04-21T10:32:08.398Z,8.27
2023-04-21T10:34:37.946Z,8.32
2023-04-21T10:37:04.741Z,8.18
2023-04-21T10:39:35.799Z,6.85
2023-04-21T10:42:18.143Z,6.93
2023-04-21T10:44:52.078Z,7.80
2023-04-21T10:47:46.006Z,8.27
2023-04-21T10:50:18.455Z,7.95
2023-04-21T10:53:04.317Z,7.40
2023-04-21T10:55:30.798Z,6.82
2023-04-21T10:58:01.902Z,7.65
2023-04-21T11:00:29.275Z,8.20
2023-04-21T11:03:04.189Z,7.90
2023-04-21T11:05:38.427Z,7.70
2023-04-21T11:08:05.292Z,7.40
2023-04-21T11:10:45.902Z,7.38
2023-04-21T11:13:12.461Z,7.22
2023-04-21T11:15:38.871Z,7.68
2023-04-21T11:18:07.336Z,8.02
2023-04-21T11:20:33.974Z,8.15
2023-04-21T11:23:00.658Z,8.43
2023-04-21T11:25:27.173Z,8.07
2023-04-21T11:27:55.869Z,6.35
2023-04-21T11:30:32.794Z,4.55
2023-04-21T11:32:59.667Z,4.88
2023-04-21T11:35:26.303Z,6.03
2023-04-21T11:37:52.881Z,6.10
2023-04-21T11:40:19.569Z,6.10
2023-04-21T11:42:46.359Z,6.05
2023-04-21T11:45:22.152Z,6.25
2023-04-21T11:47:49.415Z,6.10
2023-04-21T11:50:31.791Z,6.00
2023-04-21T11:52:58.403Z,5.68
2023-04-21T11:55:24.961Z,4.95
2023-04-21T11:57:52.053Z,4.75
2023-04-21T12:00:19.147Z,4.72
2023-04-21T12:02:54.533Z,4.55
2023-04-21T12:05:21.968Z,4.70
2023-04-21T12:07:48.905Z,4.40
2023-04-21T12:10:19.169Z,4.30
2023-04-21T12:12:46.179Z,4.07
2023-04-21T12:15:19.230Z,3.90
2023-04-21T12:17:47.919Z,3.83
2023-04-21T12:20:19.623Z,3.40
2023-04-21T12:22:46.754Z,3.40
2023-04-21T12:25:13.925Z,3.58
2023-04-21T12:27:54.066Z,3.97
2023-04-21T12:30:21.677Z,3.55
2023-04-21T12:32:48.784Z,3.17
2023-04-21T12:35:15.459Z,3.72
2023-04-21T12:37:41.942Z,3.30
2023-04-21T12:40:08.968Z,3.50
2023-04-21T12:42:37.842Z,3.47
2023-04-21T12:45:05.660Z,3.38
2023-04-21T12:47:32.329Z,3.05
2023-04-21T12:50:00.411Z,2.90
2023-04-21T12:52:27.015Z,3.45
2023-04-21T12:54:53.702Z,2.83
2023-04-21T12:57:21.287Z,2.95
2023-04-21T12:59:48.130Z,2.70
2023-04-21T13:02:14.989Z,2.50
2023-04-21T13:04:42.523Z,2.25
2023-04-21T13:07:09.638Z,2.55
2023-04-21T13:09:36.193Z,2.42
2023-04-21T13:12:03.147Z,3.08
2023-04-21T13:14:30.256Z,3.20
2023-04-21T13:16:56.976Z,2.92
2023-04-21T13:19:23.487Z,3.20
2023-04-21T13:21:51.488Z,3.70
2023-04-21T13:24:20.104Z,4.13
2023-04-21T13:26:46.577Z,3.90
2023-04-21T13:29:13.144Z,3.53
2023-04-21T13:31:39.627Z,3.80
2023-04-21T13:34:06.177Z,3.85
2023-04-21T13:36:33.266Z,3.55
2023-04-21T13:39:00.744Z,3.30
2023-04-21T13:41:27.334Z,3.28
2023-04-21T13:43:53.790Z,2.85
2023-04-21T13:46:20.494Z,2.75
2023-04-21T13:48:47.087Z,3.47
2023-04-21T13:51:13.654Z,3.55
2023-04-21T13:53:41.158Z,3.60
2023-04-21T13:56:08.375Z,3.20
2023-04-21T13:58:35.809Z,3.33
2023-04-21T14:01:02.274Z,2.97
2023-04-21T14:03:29.100Z,3.15
2023-04-21T14:05:56.279Z,3.40
2023-04-21T14:08:23.077Z,4.07
2023-04-21T14:10:49.523Z,4.35
2023-04-21T14:13:33.104Z,3.75
2023-04-21T14:16:02.478Z,4.30
2023-04-21T14:18:29.678Z,3.78
2023-04-21T14:20:56.137Z,4.88
2023-04-21T14:23:22.578Z,4.55
2023-04-21T14:25:49.118Z,4.18
2023-04-21T14:28:15.793Z,3.78
2023-04-21T14:30:43.118Z,3.72
2023-04-21T14:33:09.836Z,4.00
2023-04-21T14:35:39.568Z,4.85
2023-04-21T14:38:06.101Z,4.60
2023-04-21T14:40:33.000Z,4.75
2023-04-21T14:42:59.531Z,4.68
2023-04-21T14:45:26.179Z,4.40
2023-04-21T14:47:53.119Z,4.03
2023-04-21T14:50:20.396Z,4.35
2023-04-21T14:52:49.500Z,5.07
2023-04-21T14:55:16.600Z,4.55
2023-04-21T14:57:43.257Z,4.18
2023-04-21T15:00:10.595Z,3.50
2023-04-21T15:02:37.251Z,4.40
2023-04-21T15:05:04.200Z,4.20
2023-04-21T15:07:30.663Z,3.97
2023-04-21T15:09:57.183Z,4.05
2023-04-21T15:12:23.826Z,4.57
2023-04-21T15:14:50.297Z,4.00
2023-04-21T15:17:16.778Z,4.20
2023-04-21T15:19:43.276Z,4.13
2023-04-21T15:22:10.519Z,3.08
2023-04-21T15:24:37.023Z,3.10
2023-04-21T15:27:04.019Z,2.95
2023-04-21T15:29:30.478Z,3.47
2023-04-21T15:31:57.176Z,3.00
2023-04-21T15:34:23.625Z,3.05
2023-04-21T15:36:50.070Z,3.22
2023-04-21T15:39:16.569Z,2.67
2023-04-21T15:41:43.122Z,2.67
2023-04-21T15:44:10.972Z,3.17
2023-04-21T15:46:37.526Z,2.83
2023-04-21T15:49:04.060Z,2.80
2023-04-21T15:51:34.927Z,2.60
2023-04-21T15:54:01.402Z,2.58
2023-04-21T15:56:27.945Z,2.50
2023-04-21T15:58:54.404Z,2.42
2023-04-21T16:01:22.321Z,2.40
2023-04-21T16:03:49.506Z,2.65
2023-04-21T16:06:16.652Z,2.35
2023-04-21T16:08:43.414Z,2.38
2023-04-21T16:11:10.095Z,2.20
2023-04-21T16:13:36.619Z,2.17
2023-04-21T16:16:03.153Z,2.40
2023-04-21T16:18:29.817Z,2.45
2023-04-21T16:20:56.372Z,2.40
2023-04-21T16:23:24.590Z,2.58
2023-04-21T16:25:51.117Z,2.42
2023-04-21T16:28:17.573Z,2.25
2023-04-21T16:30:45.148Z,2.25
2023-04-21T16:33:11.729Z,1.95
2023-04-21T16:35:39.085Z,2.03
2023-04-21T16:38:06.104Z,2.67
2023-04-21T16:40:33.166Z,2.38
2023-04-21T16:42:59.813Z,2.10
2023-04-21T16:45:28.128Z,2.00
2023-04-21T16:47:54.801Z,1.80
2023-04-21T16:50:22.204Z,2.08
2023-04-21T16:52:48.951Z,2.63
2023-04-21T16:55:15.523Z,2.40
2023-04-21T16:57:41.996Z,2.00
2023-04-21T17:00:09.560Z,1.95
2023-04-21T17:02:36.472Z,1.80
2023-04-21T17:05:03.935Z,3.00
2023-04-21T17:07:32.013Z,2.05
2023-04-21T17:09:58.606Z,2.10
2023-04-21T17:12:25.258Z,2.83
2023-04-21T17:14:51.889Z,1.85
2023-04-21T17:17:18.573Z,1.95
2023-04-21T17:19:45.097Z,1.98
2023-04-21T17:22:11.620Z,1.83
2023-04-21T17:24:51.811Z,1.92
2023-04-21T17:27:20.156Z,2.05
2023-04-21T17:29:46.947Z,2.00
2023-04-21T17:32:13.901Z,2.10
2023-04-21T17:34:40.624Z,2.03
2023-04-21T17:37:07.249Z,2.10
2023-04-21T17:39:33.728Z,2.17
2023-04-21T17:42:01.874Z,2.58
2023-04-21T17:44:28.328Z,2.00
2023-04-21T17:46:54.748Z,2.30
2023-04-21T17:49:22.971Z,1.92
2023-04-21T17:51:49.396Z,2.20
2023-04-21T17:54:16.865Z,2.15
2023-04-21T17:56:45.466Z,2.70
2023-04-21T17:59:12.176Z,2.75
2023-04-21T18:01:38.623Z,2.50
2023-04-21T18:04:05.335Z,2.70
2023-04-21T18:06:32.114Z,2.63
2023-04-21T18:08:58.573Z,2.30
2023-04-21T18:11:25.047Z,1.80
2023-04-21T18:13:51.711Z,1.83
2023-04-21T18:16:18.275Z,1.63
2023-04-21T18:18:44.851Z,1.70
2023-04-21T18:21:11.520Z,1.65
2023-04-21T18:23:37.989Z,1.70
2023-04-21T18:26:04.559Z,4.95
2023-04-21T18:28:31.911Z,5.20
2023-04-21T18:30:59.740Z,4.10
2023-04-21T18:33:26.625Z,4.57
2023-04-21T18:35:53.134Z,5.35
2023-04-21T18:38:19.762Z,3.47
2023-04-21T18:40:46.302Z,2.50
2023-04-21T18:43:12.796Z,1.98
2023-04-21T18:45:39.417Z,1.75
2023-04-21T18:48:05.931Z,1.60
2023-04-21T18:50:35.220Z,1.70
2023-04-21T18:53:03.127Z,1.40
2023-04-21T18:55:30.612Z,1.40
2023-04-21T18:57:57.087Z,1.42
2023-04-21T19:00:23.528Z,1.80
2023-04-21T19:02:51.277Z,1.58
2023-04-21T19:05:18.160Z,1.55
2023-04-21T19:07:44.602Z,1.60
2023-04-21T19:10:11.229Z,1.65
2023-04-21T19:12:37.937Z,1.67
2023-04-21T19:15:04.803Z,1.60
2023-04-21T19:17:31.282Z,1.60
2023-04-21T19:19:57.858Z,1.70
2023-04-21T19:22:24.349Z,1.60
2023-04-21T19:24:51.406Z,1.70
2023-04-21T19:27:17.886Z,1.80
2023-04-21T19:29:44.312Z,1.60
2023-04-21T19:32:10.858Z,1.50
2023-04-21T19:34:37.569Z,1.60
2023-04-21T19:37:04.476Z,1.60
2023-04-21T19:39:30.935Z,1.52
2023-04-21T19:41:57.951Z,1.42
2023-04-21T19:44:24.412Z,1.60
2023-04-21T19:46:51.131Z,1.48
2023-04-21T19:49:17.684Z,1.60
2023-04-21T19:51:44.115Z,1.50
2023-04-21T19:54:12.376Z,1.50
2023-04-21T19:56:39.770Z,1.70
2023-04-21T19:59:06.550Z,1.88
2023-04-21T20:01:36.411Z,1.50
2023-04-21T20:04:04.197Z,1.50
2023-04-21T20:06:32.014Z,1.50
2023-04-21T20:08:58.576Z,1.67
2023-04-21T20:11:27.494Z,1.45
2023-04-21T20:13:55.343Z,1.67
2023-04-21T20:16:21.857Z,1.90
2023-04-21T20:18:48.937Z,1.75
2023-04-21T20:21:15.775Z,1.70
2023-04-21T20:23:42.225Z,2.13
2023-04-21T20:26:08.714Z,2.10
2023-04-21T20:28:36.053Z,2.20
2023-04-21T20:31:02.687Z,2.15
2023-04-21T20:33:29.245Z,2.20
2023-04-21T20:35:56.928Z,1.83
2023-04-21T20:38:26.546Z,2.38
2023-04-21T20:40:53.312Z,2.00
2023-04-21T20:43:20.155Z,2.00
2023-04-21T20:45:50.323Z,2.00
2023-04-21T20:48:16.889Z,1.83
2023-04-21T20:50:45.745Z,2.00
2023-04-21T20:53:12.927Z,1.73
2023-04-21T20:55:39.475Z,2.17
2023-04-21T20:58:05.975Z,2.05
2023-04-21T21:00:34.371Z,2.30
2023-04-21T21:03:01.574Z,1.92
2023-04-21T21:05:30.269Z,1.90
2023-04-21T21:07:56.973Z,2.00
2023-04-21T21:10:23.452Z,2.13
2023-04-21T21:12:49.884Z,1.85
2023-04-21T21:15:16.564Z,2.22
2023-04-21T21:17:43.141Z,1.90
2023-04-21T21:20:10.383Z,1.50
2023-04-21T21:22:36.916Z,1.90
2023-04-21T21:25:03.701Z,2.00
2023-04-21T21:27:30.170Z,2.20
2023-04-21T21:29:56.613Z,2.40
2023-04-21T21:32:23.070Z,2.58
2023-04-21T21:34:52.052Z,3.85
2023-04-21T21:37:19.059Z,3.95
2023-04-21T21:39:45.610Z,3.42
2023-04-21T21:42:12.114Z,3.00
2023-04-21T21:44:38.638Z,2.80
2023-04-21T21:47:05.679Z,3.17
2023-04-21T21:49:32.542Z,3.40
2023-04-21T21:51:58.995Z,3.20
2023-04-21T21:54:25.458Z,3.80
2023-04-21T21:56:51.936Z,3.80
2023-04-21T21:59:18.384Z,3.05
2023-04-21T22:01:44.979Z,3.30
2023-04-21T22:04:11.631Z,3.55
2023-04-21T22:06:38.187Z,3.33
2023-04-21T22:09:05.173Z,3.50
2023-04-21T22:11:31.930Z,3.20
2023-04-21T22:14:07.731Z,3.00
2023-04-21T22:16:42.950Z,3.40
2023-04-21T22:19:10.528Z,3.47
2023-04-21T22:21:37.106Z,3.75
2023-04-21T22:24:03.915Z,3.38
2023-04-21T22:26:31.316Z,3.50
2023-04-21T22:28:57.793Z,3.40
2023-04-21T22:31:25.605Z,3.35
2023-04-21T22:33:52.103Z,3.67
2023-04-21T22:36:18.540Z,3.20
2023-04-21T22:38:45.719Z,3.85
2023-04-21T22:41:13.502Z,3.78
2023-04-21T22:43:39.993Z,3.50
2023-04-21T22:46:06.869Z,3.85
2023-04-21T22:48:36.216Z,4.00
2023-04-21T22:51:03.595Z,3.38
2023-04-21T22:53:30.342Z,3.83
2023-04-21T22:55:56.888Z,4.13
2023-04-21T22:58:24.259Z,3.80
2023-04-21T23:00:50.765Z,4.13
2023-04-21T23:03:17.532Z,3.80
2023-04-21T23:05:44.139Z,4.10
2023-04-21T23:08:10.664Z,4.00
2023-04-21T23:10:37.135Z,4.10
2023-04-21T23:13:03.578Z,4.25
2023-04-21T23:15:30.111Z,4.38
2023-04-21T23:17:56.594Z,4.18
2023-04-21T23:20:23.616Z,4.60
2023-04-21T23:22:50.328Z,4.32
2023-04-21T23:25:16.816Z,4.72
2023-04-21T23:27:43.885Z,5.07
2023-04-21T23:30:10.897Z,4.80
2023-04-21T23:32:37.462Z,4.63
2023-04-21T23:35:04.446Z,4.70
2023-04-21T23:37:30.990Z,4.35
2023-04-21T23:39:57.459Z,4.85
2023-04-21T23:42:23.942Z,4.43
2023-04-21T23:44:50.594Z,5.03
2023-04-21T23:47:17.010Z,5.30
2023-04-21T23:49:43.523Z,5.07
2023-04-21T23:52:10.389Z,4.75
2023-04-21T23:54:36.835Z,5.00
2023-04-21T23:57:03.447Z,5.43
2023-04-21T23:59:29.940Z,5.55
